createdAt,value
2023-05-06T00:01:07.940Z,1.00
2023-05-06T00:03:36.040Z,1.00
2023-05-06T00:06:07.102Z,1.00
2023-05-06T00:08:35.040Z,1.00
2023-05-06T00:11:03.012Z,1.00
2023-05-06T00:13:31.005Z,1.00
2023-05-06T00:15:59.041Z,1.00
2023-05-06T00:18:27.070Z,1.00
2023-05-06T00:20:55.093Z,1.00
2023-05-06T00:23:24.384Z,1.00
2023-05-06T00:25:54.185Z,1.00
2023-05-06T00:28:22.156Z,1.00
2023-05-06T00:30:50.146Z,1.00
2023-05-06T00:33:18.074Z,1.00
2023-05-06T00:35:46.079Z,1.00
2023-05-06T00:38:15.609Z,1.00
2023-05-06T00:40:44.909Z,1.00
2023-05-06T00:43:12.866Z,1.00
2023-05-06T00:45:41.392Z,1.00
2023-05-06T00:48:09.676Z,1.00
2023-05-06T00:50:40.501Z,1.00
2023-05-06T00:53:10.975Z,1.00
2023-05-06T00:55:39.790Z,1.00
2023-05-06T00:58:09.894Z,1.00
2023-05-06T01:00:37.860Z,1.00
2023-05-06T01:03:05.949Z,1.00
2023-05-06T01:05:41.390Z,1.00
2023-05-06T01:08:17.974Z,1.00
2023-05-06T01:10:50.792Z,1.00
2023-05-06T01:13:31.180Z,1.00
2023-05-06T01:16:02.376Z,1.00
2023-05-06T01:18:33.175Z,1.00
2023-05-06T01:21:03.324Z,1.00
2023-05-06T01:23:51.499Z,1.00
2023-05-06T01:26:19.462Z,1.00
2023-05-06T01:28:47.485Z,1.00
2023-05-06T01:31:21.678Z,1.00
2023-05-06T01:33:55.861Z,1.00
2023-05-06T01:36:29.636Z,1.00
2023-05-06T01:39:03.510Z,1.00
2023-05-06T01:41:34.380Z,1.00
2023-05-06T01:44:02.948Z,1.00
2023-05-06T01:46:32.732Z,1.00
2023-05-06T01:49:05.118Z,1.00
2023-05-06T01:51:34.223Z,1.00
2023-05-06T01:54:03.561Z,1.00
2023-05-06T01:56:32.019Z,1.00
2023-05-06T01:59:00.135Z,1.00
2023-05-06T02:01:28.287Z,1.00
2023-05-06T02:03:56.476Z,1.00
2023-05-06T02:06:24.485Z,1.00
2023-05-06T02:08:52.784Z,1.00
2023-05-06T02:11:22.160Z,1.00
2023-05-06T02:13:50.171Z,1.00
2023-05-06T02:16:18.157Z,1.00
2023-05-06T02:18:46.108Z,1.00
2023-05-06T02:21:14.191Z,1.00
2023-05-06T02:23:42.175Z,1.00
2023-05-06T02:26:10.657Z,1.00
2023-05-06T02:28:40.034Z,1.00
2023-05-06T02:31:08.106Z,1.00
2023-05-06T02:33:36.177Z,1.00
2023-05-06T02:36:04.320Z,1.00
2023-05-06T02:38:32.297Z,99.90
2023-05-06T02:41:00.294Z,1.00
2023-05-06T02:43:28.271Z,1.00
2023-05-06T02:45:57.631Z,1.00
2023-05-06T02:48:25.612Z,99.90
2023-05-06T02:50:53.643Z,99.90
2023-05-06T02:53:22.032Z,1.00
2023-05-06T02:55:50.006Z,1.00
2023-05-06T02:58:17.959Z,1.00
2023-05-06T03:00:45.954Z,1.00
2023-05-06T03:03:15.357Z,1.00
2023-05-06T03:05:43.248Z,1.00
2023-05-06T03:08:11.224Z,1.00
2023-05-06T03:10:39.189Z,1.00
2023-05-06T03:13:07.222Z,1.00
2023-05-06T03:15:35.244Z,1.00
2023-05-06T03:18:03.273Z,1.00
2023-05-06T03:20:32.689Z,1.00
2023-05-06T03:23:00.660Z,1.00
2023-05-06T03:25:28.718Z,1.00
2023-05-06T03:27:56.662Z,1.00
2023-05-06T03:30:24.632Z,1.00
2023-05-06T03:32:52.682Z,1.00
2023-05-06T03:35:21.179Z,1.00
2023-05-06T03:37:50.561Z,1.00
2023-05-06T03:40:18.760Z,1.00
2023-05-06T03:42:47.180Z,1.00
2023-05-06T03:45:15.184Z,1.00
2023-05-06T03:47:43.699Z,1.00
2023-05-06T03:50:11.887Z,1.00
2023-05-06T03:52:40.124Z,1.00
2023-05-06T03:55:10.975Z,1.00
2023-05-06T03:57:39.810Z,1.00
2023-05-06T04:00:09.107Z,1.00
2023-05-06T04:02:38.114Z,1.00
2023-05-06T04:05:07.720Z,1.00
2023-05-06T04:07:36.116Z,1.00
2023-05-06T04:10:04.143Z,11.50
2023-05-06T04:12:33.487Z,33.70
2023-05-06T04:15:01.598Z,47.10
2023-05-06T04:17:29.570Z,31.00
2023-05-06T04:19:57.760Z,41.60
2023-05-06T04:22:25.848Z,53.30
2023-05-06T04:24:53.871Z,5.80
2023-05-06T04:27:21.890Z,53.30
2023-05-06T04:29:51.253Z,41.40
2023-05-06T04:32:19.219Z,53.50
2023-05-06T04:34:47.405Z,36.80
2023-05-06T04:37:15.443Z,55.20
2023-05-06T04:39:47.246Z,89.30
2023-05-06T04:42:16.146Z,91.00
2023-05-06T04:44:44.402Z,99.90
2023-05-06T04:47:13.895Z,99.90
2023-05-06T04:49:42.364Z,99.90
2023-05-06T04:52:10.384Z,99.90
2023-05-06T04:54:38.339Z,99.90
2023-05-06T04:57:06.326Z,99.90
2023-05-06T04:59:34.361Z,99.90
2023-05-06T05:02:02.449Z,99.90
2023-05-06T05:04:31.804Z,99.90
2023-05-06T05:06:59.789Z,99.90
2023-05-06T05:09:27.726Z,99.90
2023-05-06T05:11:55.654Z,99.90
2023-05-06T05:14:23.633Z,1.00
2023-05-06T05:16:51.730Z,1.00
2023-05-06T05:19:19.733Z,1.00
2023-05-06T05:21:49.233Z,99.90
2023-05-06T05:24:17.224Z,1.00
2023-05-06T05:26:45.198Z,1.00
2023-05-06T05:29:13.199Z,99.90
2023-05-06T05:31:41.444Z,99.90
2023-05-06T05:34:09.563Z,99.90
2023-05-06T05:36:37.562Z,99.90
2023-05-06T05:39:07.030Z,99.90
2023-05-06T05:41:34.959Z,99.90
2023-05-06T05:44:02.958Z,99.90
2023-05-06T05:46:31.160Z,99.90
2023-05-06T05:48:59.131Z,99.90
2023-05-06T05:51:27.014Z,99.90
2023-05-06T05:53:55.004Z,99.90
2023-05-06T05:56:24.369Z,1.00
2023-05-06T05:58:52.426Z,1.00
2023-05-06T06:01:20.403Z,1.00
2023-05-06T06:03:48.599Z,1.00
2023-05-06T06:06:16.730Z,1.00
2023-05-06T06:08:44.736Z,1.00
2023-05-06T06:11:12.866Z,1.00
2023-05-06T06:13:42.268Z,1.00
2023-05-06T06:16:10.348Z,1.00
2023-05-06T06:18:38.386Z,1.00
2023-05-06T06:21:06.638Z,1.00
2023-05-06T06:23:34.886Z,1.00
2023-05-06T06:26:03.921Z,1.00
2023-05-06T06:28:32.354Z,1.00
2023-05-06T06:31:01.937Z,1.00
2023-05-06T06:33:30.023Z,1.00
2023-05-06T06:35:58.536Z,1.00
2023-05-06T06:38:26.852Z,1.00
2023-05-06T06:40:54.869Z,1.00
2023-05-06T06:43:23.828Z,1.00
2023-05-06T06:45:52.154Z,1.00
2023-05-06T06:48:21.597Z,1.00
2023-05-06T06:50:49.564Z,1.00
2023-05-06T06:53:17.811Z,1.00
2023-05-06T06:55:45.884Z,1.00
2023-05-06T06:58:13.935Z,1.00
2023-05-06T07:00:41.950Z,1.00
2023-05-06T07:03:10.078Z,1.00
2023-05-06T07:05:39.539Z,1.00
2023-05-06T07:08:07.514Z,1.00
2023-05-06T07:10:35.911Z,1.00
2023-05-06T07:13:04.001Z,1.00
2023-05-06T07:15:32.073Z,1.00
2023-05-06T07:18:00.099Z,1.00
2023-05-06T07:20:28.129Z,1.00
2023-05-06T07:22:57.460Z,99.90
2023-05-06T07:25:25.499Z,99.90
2023-05-06T07:27:53.412Z,99.90
2023-05-06T07:30:25.222Z,99.90
2023-05-06T07:32:53.308Z,99.90
2023-05-06T07:35:21.295Z,99.90
2023-05-06T07:37:49.394Z,99.90
2023-05-06T07:40:18.713Z,99.90
2023-05-06T07:42:46.675Z,99.90
2023-05-06T07:45:15.193Z,99.90
2023-05-06T07:47:43.313Z,99.90
2023-05-06T07:50:11.842Z,99.90
2023-05-06T07:52:39.844Z,99.90
2023-05-06T07:55:10.138Z,76.70
2023-05-06T07:57:39.631Z,86.00
2023-05-06T08:00:10.056Z,99.90
2023-05-06T08:02:39.451Z,27.90
2023-05-06T08:05:08.890Z,99.90
2023-05-06T08:07:37.299Z,65.70
2023-05-06T08:10:06.003Z,99.20
2023-05-06T08:12:34.138Z,95.10
2023-05-06T08:15:03.839Z,99.50
2023-05-06T08:17:31.926Z,99.90
2023-05-06T08:20:00.180Z,99.90
2023-05-06T08:22:28.169Z,99.90
2023-05-06T08:24:57.431Z,99.90
2023-05-06T08:27:25.494Z,95.20
2023-05-06T08:29:53.672Z,99.90
2023-05-06T08:32:23.055Z,56.80
2023-05-06T08:34:51.355Z,56.10
2023-05-06T08:37:19.318Z,1.00
2023-05-06T08:39:47.244Z,1.00
2023-05-06T08:42:17.317Z,1.00
2023-05-06T08:47:37.753Z,1.00
2023-05-06T08:50:06.485Z,28.30
2023-05-06T08:52:35.537Z,1.60
2023-05-06T08:55:05.350Z,19.70
2023-05-06T08:57:34.960Z,1.00
2023-05-06T09:00:04.244Z,1.00
2023-05-06T09:02:32.279Z,1.00
2023-05-06T09:05:02.197Z,1.00
2023-05-06T09:07:30.269Z,1.00
2023-05-06T09:09:58.244Z,1.00
2023-05-06T09:12:26.405Z,1.00
2023-05-06T09:14:55.929Z,1.00
2023-05-06T09:17:26.580Z,1.00
2023-05-06T09:19:57.279Z,1.00
2023-05-06T09:22:31.147Z,1.00
2023-05-06T09:25:00.169Z,1.00
2023-05-06T09:27:29.688Z,1.00
2023-05-06T09:30:02.647Z,1.00
2023-05-06T09:32:31.000Z,1.00
2023-05-06T09:34:59.994Z,1.00
2023-05-06T09:37:29.559Z,1.00
2023-05-06T09:39:59.634Z,1.00
2023-05-06T09:42:28.830Z,1.00
2023-05-06T09:45:00.650Z,1.00
2023-05-06T09:47:36.501Z,1.00
2023-05-06T09:50:05.424Z,1.00
2023-05-06T09:52:35.077Z,1.00
2023-05-06T09:55:04.434Z,1.00
2023-05-06T09:57:33.452Z,1.00
2023-05-06T10:00:02.688Z,1.00
2023-05-06T10:02:31.703Z,1.00
2023-05-06T10:05:00.556Z,1.00
2023-05-06T10:07:30.668Z,1.00
2023-05-06T10:10:01.313Z,1.00
2023-05-06T10:12:30.247Z,1.00
2023-05-06T10:14:58.368Z,1.00
2023-05-06T10:17:27.058Z,1.00
2023-05-06T10:20:00.485Z,1.00
2023-05-06T10:22:36.679Z,1.00
2023-05-06T10:25:16.877Z,1.00
2023-05-06T10:27:46.953Z,1.00
2023-05-06T10:30:17.574Z,1.00
2023-05-06T10:32:46.493Z,1.00
2023-05-06T10:35:23.692Z,1.00
2023-05-06T10:37:53.245Z,1.00
2023-05-06T10:40:24.245Z,1.00
2023-05-06T10:42:52.313Z,1.00
2023-05-06T10:45:20.508Z,1.00
2023-05-06T10:48:08.668Z,1.00
2023-05-06T10:50:36.728Z,1.00
2023-05-06T10:53:04.769Z,1.00
2023-05-06T10:55:35.826Z,1.00
2023-05-06T10:58:05.236Z,1.00
2023-05-06T11:00:34.245Z,1.00
2023-05-06T11:03:09.862Z,1.00
2023-05-06T11:05:49.691Z,1.00
2023-05-06T11:08:23.620Z,1.00
2023-05-06T11:10:53.156Z,1.00
2023-05-06T11:13:23.819Z,1.00
2023-05-06T11:15:52.375Z,1.00
2023-05-06T11:18:43.226Z,1.00
2023-05-06T11:21:37.829Z,1.00
2023-05-06T11:24:10.675Z,1.00
2023-05-06T11:26:41.465Z,1.00
2023-05-06T11:29:10.075Z,1.00
2023-05-06T11:31:43.493Z,1.00
2023-05-06T11:34:14.065Z,1.00
2023-05-06T11:36:50.134Z,1.00
2023-05-06T11:39:18.171Z,1.00
2023-05-06T11:41:47.643Z,1.00
2023-05-06T11:44:30.148Z,1.00
2023-05-06T11:46:59.084Z,1.00
2023-05-06T11:49:27.961Z,1.00
2023-05-06T11:51:57.031Z,1.00
2023-05-06T11:54:27.444Z,1.00
2023-05-06T11:56:58.069Z,1.00
2023-05-06T11:59:31.020Z,1.00
2023-05-06T12:02:00.578Z,1.00
2023-05-06T12:04:29.088Z,1.00
2023-05-06T12:06:58.001Z,1.00
2023-05-06T12:09:26.432Z,1.00
2023-05-06T12:11:56.534Z,1.00
2023-05-06T12:14:24.731Z,1.00
2023-05-06T12:16:54.769Z,1.00
2023-05-06T12:19:24.189Z,1.00
2023-05-06T12:21:52.340Z,1.00
2023-05-06T12:24:29.208Z,1.00
2023-05-06T12:26:59.225Z,1.00
2023-05-06T12:29:27.193Z,1.00
2023-05-06T12:32:09.145Z,1.00
2023-05-06T12:34:38.573Z,1.00
2023-05-06T12:37:07.371Z,1.00
2023-05-06T12:39:36.120Z,1.00
2023-05-06T12:42:06.910Z,1.00
2023-05-06T12:44:37.007Z,1.00
2023-05-06T12:47:07.415Z,1.00
2023-05-06T12:49:49.160Z,1.00
2023-05-06T12:52:18.425Z,1.00
2023-05-06T12:54:46.962Z,1.00
2023-05-06T12:57:17.156Z,1.00
2023-05-06T12:59:46.357Z,1.00
2023-05-06T13:02:14.703Z,1.00
2023-05-06T13:04:43.182Z,1.00
2023-05-06T13:07:11.247Z,1.00
2023-05-06T13:09:39.283Z,1.00
2023-05-06T13:12:07.947Z,1.00
2023-05-06T13:14:39.923Z,1.00
2023-05-06T13:17:08.743Z,1.00
2023-05-06T13:19:37.246Z,1.00
2023-05-06T13:22:05.476Z,1.00
2023-05-06T13:24:33.623Z,1.00
2023-05-06T13:27:02.077Z,1.00
2023-05-06T13:29:30.507Z,1.00
2023-05-06T13:32:00.705Z,1.00
2023-05-06T13:34:29.594Z,1.00
2023-05-06T13:36:57.607Z,1.00
2023-05-06T13:39:25.828Z,1.00
2023-05-06T13:41:54.293Z,1.00
2023-05-06T13:44:22.712Z,1.00
2023-05-06T13:46:51.208Z,1.00
2023-05-06T13:49:20.986Z,1.00
2023-05-06T13:51:48.972Z,1.00
2023-05-06T13:54:16.998Z,1.00
2023-05-06T13:56:45.055Z,1.00
2023-05-06T13:59:13.992Z,1.00
2023-05-06T14:01:42.633Z,1.00
2023-05-06T14:04:10.761Z,1.00
2023-05-06T14:06:40.577Z,1.00
2023-05-06T14:09:09.005Z,1.00
2023-05-06T14:11:37.036Z,1.00
2023-05-06T14:14:06.343Z,1.00
2023-05-06T14:16:34.332Z,1.00
2023-05-06T14:19:02.423Z,1.00
2023-05-06T14:21:30.535Z,1.00
2023-05-06T14:24:00.142Z,1.00
2023-05-06T14:26:28.374Z,1.00
2023-05-06T14:28:56.421Z,1.00
2023-05-06T14:31:24.418Z,1.00
2023-05-06T14:33:52.438Z,1.00
2023-05-06T14:36:20.728Z,1.00
2023-05-06T14:38:48.845Z,1.00
2023-05-06T14:41:18.219Z,1.00
2023-05-06T14:43:46.518Z,1.00
2023-05-06T14:46:15.912Z,1.00
2023-05-06T14:48:45.403Z,1.00
2023-05-06T14:51:13.540Z,1.00
2023-05-06T14:53:41.514Z,1.00
2023-05-06T14:56:10.456Z,1.00
2023-05-06T14:58:40.237Z,1.00
2023-05-06T15:01:08.368Z,1.00
2023-05-06T15:03:37.126Z,1.00
2023-05-06T15:06:05.969Z,1.00
2023-05-06T15:08:34.062Z,1.00
2023-05-06T15:11:04.010Z,1.00
2023-05-06T15:13:32.315Z,1.00
2023-05-06T15:16:01.835Z,1.00
2023-05-06T15:18:29.855Z,1.00
2023-05-06T15:20:58.692Z,1.00
2023-05-06T15:23:26.730Z,1.00
2023-05-06T15:25:54.751Z,1.00
2023-05-06T15:28:24.554Z,1.00
2023-05-06T15:30:52.823Z,1.00
2023-05-06T15:33:22.161Z,1.00
2023-05-06T15:35:50.385Z,1.00
2023-05-06T15:38:18.322Z,1.00
2023-05-06T15:40:51.981Z,1.00
2023-05-06T15:43:23.320Z,1.00
2023-05-06T15:45:51.944Z,1.00
2023-05-06T15:48:19.946Z,1.00
2023-05-06T15:50:49.312Z,1.00
2023-05-06T15:53:17.310Z,1.00
2023-05-06T15:55:52.980Z,1.00
2023-05-06T15:58:25.383Z,1.00
2023-05-06T16:00:53.410Z,1.00
2023-05-06T16:03:21.468Z,1.00
2023-05-06T16:05:54.363Z,1.00
2023-05-06T16:08:22.298Z,1.00
2023-05-06T16:10:50.490Z,1.00
2023-05-06T16:13:20.067Z,1.00
2023-05-06T16:15:48.593Z,1.00
2023-05-06T16:18:16.685Z,1.00
2023-05-06T16:20:44.647Z,1.00
2023-05-06T16:23:16.261Z,1.00
2023-05-06T16:25:44.208Z,1.00
2023-05-06T16:28:12.185Z,1.00
2023-05-06T16:30:40.862Z,1.00
2023-05-06T16:33:08.844Z,1.00
2023-05-06T16:35:36.788Z,1.00
2023-05-06T16:38:04.703Z,1.00
2023-05-06T16:40:40.705Z,1.00
2023-05-06T16:43:08.626Z,1.00
2023-05-06T16:45:36.625Z,1.00
2023-05-06T16:48:04.902Z,1.00
2023-05-06T16:50:33.000Z,1.00
2023-05-06T16:53:01.103Z,1.00
2023-05-06T16:55:29.091Z,1.00
2023-05-06T16:58:00.490Z,1.00
2023-05-06T17:00:28.927Z,1.00
2023-05-06T17:02:56.967Z,1.00
2023-05-06T17:05:24.988Z,1.00
2023-05-06T17:07:52.949Z,1.00
2023-05-06T17:10:21.996Z,1.00
2023-05-06T17:12:50.005Z,1.00
2023-05-06T17:15:19.438Z,1.00
2023-05-06T17:17:47.391Z,2.50
2023-05-06T17:20:15.718Z,1.00
2023-05-06T17:22:43.689Z,1.00
2023-05-06T17:25:11.669Z,1.00
2023-05-06T17:27:39.599Z,1.00
2023-05-06T17:30:09.593Z,1.00
2023-05-06T17:32:39.312Z,1.00
2023-05-06T17:35:08.523Z,35.70
2023-05-06T17:37:36.566Z,37.00
2023-05-06T17:40:06.006Z,73.50
2023-05-06T17:42:34.987Z,58.30
2023-05-06T17:45:03.050Z,99.90
2023-05-06T17:47:31.037Z,99.90
2023-05-06T17:50:00.661Z,99.90
2023-05-06T17:52:28.754Z,99.90
2023-05-06T17:55:11.154Z,99.90
2023-05-06T17:57:43.373Z,99.90
2023-05-06T18:00:12.433Z,99.90
2023-05-06T18:02:41.427Z,99.90
2023-05-06T18:05:11.698Z,99.90
2023-05-06T18:07:42.602Z,99.90
2023-05-06T18:10:12.894Z,99.90
2023-05-06T18:12:40.962Z,99.90
2023-05-06T18:15:10.064Z,99.90
2023-05-06T18:17:38.494Z,99.90
2023-05-06T18:20:07.915Z,99.90
2023-05-06T18:22:37.217Z,99.90
2023-05-06T18:25:05.760Z,99.90
2023-05-06T18:27:33.669Z,99.90
2023-05-06T18:30:01.685Z,99.90
2023-05-06T18:32:29.701Z,99.90
2023-05-06T18:34:57.769Z,99.90
2023-05-06T18:37:25.826Z,99.90
2023-05-06T18:39:55.213Z,99.90
2023-05-06T18:42:23.754Z,99.90
2023-05-06T18:44:51.748Z,99.90
2023-05-06T18:47:20.390Z,99.90
2023-05-06T18:49:48.615Z,99.90
2023-05-06T18:52:17.766Z,99.90
2023-05-06T18:54:46.304Z,99.90
2023-05-06T18:57:15.687Z,99.90
2023-05-06T18:59:43.693Z,99.90
2023-05-06T19:02:11.664Z,99.90
2023-05-06T19:04:39.660Z,99.90
2023-05-06T19:07:07.626Z,99.90
2023-05-06T19:09:37.146Z,99.90
2023-05-06T19:12:05.354Z,99.90
2023-05-06T19:14:35.418Z,99.90
2023-05-06T19:17:04.827Z,99.90
2023-05-06T19:19:32.994Z,99.90
2023-05-06T19:22:02.240Z,99.90
2023-05-06T19:24:31.188Z,99.90
2023-05-06T19:26:59.185Z,99.90
2023-05-06T19:29:27.185Z,99.90
2023-05-06T19:31:56.491Z,99.90
2023-05-06T19:34:24.494Z,99.90
2023-05-06T19:36:52.518Z,99.90
2023-05-06T19:39:21.354Z,99.90
2023-05-06T19:41:49.401Z,99.90
2023-05-06T19:44:17.440Z,99.90
2023-05-06T19:46:45.514Z,99.90
2023-05-06T19:49:14.921Z,99.90
2023-05-06T19:51:42.962Z,99.90
2023-05-06T19:54:10.917Z,99.90
2023-05-06T19:56:39.025Z,99.90
2023-05-06T19:59:07.091Z,99.90
2023-05-06T20:01:35.087Z,99.90
2023-05-06T20:04:03.890Z,99.90
2023-05-06T20:06:33.212Z,99.90
2023-05-06T20:09:01.184Z,99.90
2023-05-06T20:11:29.119Z,99.90
2023-05-06T20:13:57.125Z,99.90
2023-05-06T20:16:25.302Z,99.90
2023-05-06T20:18:53.996Z,99.90
2023-05-06T20:21:22.087Z,99.90
2023-05-06T20:23:51.493Z,99.90
2023-05-06T20:26:19.490Z,99.90
2023-05-06T20:28:47.437Z,99.90
2023-05-06T20:31:15.486Z,99.90
2023-05-06T20:33:43.700Z,99.90
2023-05-06T20:36:11.717Z,99.90
2023-05-06T20:38:39.723Z,99.90
2023-05-06T20:41:09.124Z,99.90
2023-05-06T20:43:37.141Z,99.90
2023-05-06T20:46:05.485Z,99.90
2023-05-06T20:48:33.556Z,99.90
2023-05-06T20:51:01.586Z,99.90
2023-05-06T20:53:29.574Z,1.00
2023-05-06T20:55:57.609Z,1.00
2023-05-06T20:58:28.529Z,1.00
2023-05-06T21:00:57.304Z,99.90
2023-05-06T21:03:26.579Z,99.90
2023-05-06T21:05:54.679Z,1.00
2023-05-06T21:08:22.690Z,1.00
2023-05-06T21:10:50.693Z,1.00
2023-05-06T21:13:18.784Z,1.00
2023-05-06T21:15:48.185Z,1.00
2023-05-06T21:18:17.209Z,99.90
2023-05-06T21:20:45.283Z,99.90
2023-05-06T21:23:13.312Z,1.00
2023-05-06T21:25:41.272Z,1.00
2023-05-06T21:28:09.204Z,1.00
2023-05-06T21:30:37.584Z,99.90
2023-05-06T21:33:08.363Z,1.00
2023-05-06T21:35:36.511Z,1.00
2023-05-06T21:38:04.690Z,1.00
2023-05-06T21:40:32.625Z,1.00
2023-05-06T21:43:00.651Z,1.00
2023-05-06T21:45:29.123Z,1.00
2023-05-06T21:47:57.165Z,1.00
2023-05-06T21:50:27.572Z,1.00
2023-05-06T21:52:55.593Z,1.00
2023-05-06T21:55:23.673Z,1.00
2023-05-06T21:57:51.656Z,1.00
2023-05-06T22:00:20.105Z,1.00
2023-05-06T22:02:48.174Z,1.00
2023-05-06T22:05:16.276Z,1.00
2023-05-06T22:07:45.604Z,1.00
2023-05-06T22:10:13.653Z,1.00
2023-05-06T22:12:41.666Z,1.00
2023-05-06T22:15:10.615Z,1.00
2023-05-06T22:17:39.006Z,1.00
2023-05-06T22:20:10.881Z,1.00
2023-05-06T22:22:39.363Z,1.00
2023-05-06T22:25:10.244Z,1.00
2023-05-06T22:27:38.579Z,1.00
2023-05-06T22:30:08.132Z,1.00
2023-05-06T22:32:36.214Z,1.00
2023-05-06T22:35:04.297Z,1.00
2023-05-06T22:37:32.327Z,1.00
2023-05-06T22:40:00.543Z,1.00
2023-05-06T22:42:29.956Z,1.00
2023-05-06T22:44:57.953Z,1.00
2023-05-06T22:47:26.139Z,1.00
2023-05-06T22:49:54.139Z,1.00
2023-05-06T22:52:22.171Z,1.00
2023-05-06T22:54:50.157Z,1.00
2023-05-06T22:57:19.095Z,1.00
2023-05-06T22:59:48.555Z,1.00
2023-05-06T23:02:16.590Z,1.00
2023-05-06T23:04:44.557Z,1.00
2023-05-06T23:07:13.736Z,1.00
2023-05-06T23:09:41.764Z,1.00
2023-05-06T23:12:09.712Z,1.00
2023-05-06T23:14:37.637Z,1.00
2023-05-06T23:17:07.161Z,1.00
2023-05-06T23:19:35.226Z,1.00
2023-05-06T23:22:03.258Z,1.00
2023-05-06T23:24:31.315Z,1.00
2023-05-06T23:26:59.331Z,1.00
2023-05-06T23:29:27.263Z,1.00
2023-05-06T23:31:55.340Z,1.00
2023-05-06T23:34:24.846Z,1.00
2023-05-06T23:36:52.827Z,1.00
2023-05-06T23:39:21.718Z,1.00
2023-05-06T23:41:49.698Z,1.00
2023-05-06T23:44:18.706Z,1.00
2023-05-06T23:46:46.694Z,1.00
2023-05-06T23:49:15.235Z,1.00
2023-05-06T23:51:44.637Z,1.00
2023-05-06T23:54:12.594Z,1.00
2023-05-06T23:56:40.747Z,1.00
2023-05-06T23:59:08.815Z,1.00
